createdAt,value
2018-10-07T00:01:29.706Z,87.30
2018-10-07T00:03:57.616Z,87.20
2018-10-07T00:06:25.554Z,87.90
2018-10-07T00:08:53.432Z,87.80
2018-10-07T00:11:21.417Z,87.90
2018-10-07T00:13:49.494Z,87.70
2018-10-07T00:16:17.378Z,88.20
2018-10-07T00:18:45.243Z,88.50
2018-10-07T00:21:13.077Z,89.20
2018-10-07T00:23:40.884Z,89.40
2018-10-07T00:26:09.158Z,88.60
2018-10-07T00:28:37.000Z,88.20
2018-10-07T00:31:04.876Z,88.30
2018-10-07T00:33:32.728Z,89.10
2018-10-07T00:36:00.572Z,88.60
2018-10-07T00:38:28.423Z,88.40
2018-10-07T00:40:56.288Z,88.70
2018-10-07T00:43:24.144Z,88.80
2018-10-07T00:45:52.175Z,88.70
2018-10-07T00:48:20.012Z,88.90
2018-10-07T00:50:47.898Z,89.20
2018-10-07T00:53:15.781Z,89.70
2018-10-07T00:55:43.591Z,88.80
2018-10-07T00:58:11.393Z,88.80
2018-10-07T01:00:39.227Z,88.90
2018-10-07T01:03:07.099Z,89.20
2018-10-07T01:05:34.930Z,89.10
2018-10-07T01:08:02.757Z,89.10
2018-10-07T01:10:30.568Z,88.90
2018-10-07T01:12:58.464Z,88.80
2018-10-07T01:15:26.341Z,88.60
2018-10-07T01:17:54.201Z,88.20
2018-10-07T01:20:22.415Z,88.60
2018-10-07T01:22:50.376Z,88.50
2018-10-07T01:25:18.233Z,88.50
2018-10-07T01:27:46.096Z,87.90
2018-10-07T01:30:13.931Z,88.20
2018-10-07T01:32:41.797Z,88.40
2018-10-07T01:35:09.673Z,88.70
2018-10-07T01:37:37.512Z,89.00
2018-10-07T01:40:05.439Z,89.00
2018-10-07T01:42:33.280Z,88.70
2018-10-07T01:45:01.141Z,88.70
2018-10-07T01:47:29.016Z,88.50
2018-10-07T01:49:56.846Z,88.40
2018-10-07T01:52:24.688Z,88.50
2018-10-07T01:54:52.504Z,88.90
2018-10-07T01:57:20.620Z,88.60
2018-10-07T01:59:48.456Z,88.60
2018-10-07T02:02:16.299Z,88.50
2018-10-07T02:04:44.172Z,88.50
2018-10-07T02:07:12.043Z,88.50
2018-10-07T02:09:39.858Z,88.50
2018-10-07T02:12:08.176Z,88.70
2018-10-07T02:14:36.023Z,89.00
2018-10-07T02:17:03.886Z,89.10
2018-10-07T02:19:31.728Z,89.00
2018-10-07T02:21:59.569Z,89.00
2018-10-07T02:24:27.409Z,89.20
2018-10-07T02:26:55.256Z,89.60
2018-10-07T02:29:23.108Z,89.40
2018-10-07T02:31:50.986Z,89.40
2018-10-07T02:34:18.811Z,89.10
2018-10-07T02:36:46.643Z,88.80
2018-10-07T02:39:14.488Z,89.00
2018-10-07T02:41:42.344Z,88.80
2018-10-07T02:44:10.176Z,89.00
2018-10-07T02:46:38.276Z,89.20
2018-10-07T02:49:06.554Z,88.80
2018-10-07T02:51:34.449Z,89.00
2018-10-07T02:54:02.430Z,89.00
2018-10-07T02:56:30.377Z,89.20
2018-10-07T02:58:58.565Z,89.20
2018-10-07T03:01:26.515Z,89.20
2018-10-07T03:03:54.365Z,88.90
2018-10-07T03:06:22.279Z,88.90
2018-10-07T03:08:50.497Z,89.00
2018-10-07T03:11:18.370Z,89.10
2018-10-07T03:13:46.240Z,89.30
2018-10-07T03:16:14.084Z,89.40
2018-10-07T03:18:41.903Z,89.70
2018-10-07T03:21:09.769Z,89.70
2018-10-07T03:23:37.592Z,89.40
2018-10-07T03:26:05.974Z,89.60
2018-10-07T03:28:33.856Z,89.70
2018-10-07T03:31:01.678Z,89.30
2018-10-07T03:33:29.553Z,89.30
2018-10-07T03:35:57.420Z,89.20
2018-10-07T03:38:25.249Z,89.10
2018-10-07T03:40:53.063Z,88.70
2018-10-07T03:43:20.901Z,88.70
2018-10-07T03:45:48.991Z,88.90
2018-10-07T03:48:16.936Z,88.70
2018-10-07T03:50:44.769Z,89.00
2018-10-07T03:53:12.595Z,88.90
2018-10-07T03:55:40.433Z,89.00
2018-10-07T03:58:08.551Z,89.10
2018-10-07T04:00:36.407Z,89.00
2018-10-07T04:03:04.275Z,89.00
2018-10-07T04:05:32.152Z,88.60
2018-10-07T04:08:00.006Z,88.30
2018-10-07T04:10:27.871Z,88.20
2018-10-07T04:12:55.709Z,88.50
2018-10-07T04:15:23.546Z,88.70
2018-10-07T04:17:51.414Z,88.60
2018-10-07T04:20:19.255Z,88.80
2018-10-07T04:22:47.842Z,89.00
2018-10-07T04:25:15.732Z,88.90
2018-10-07T04:27:43.567Z,88.60
2018-10-07T04:30:11.744Z,88.60
2018-10-07T04:32:39.560Z,88.70
2018-10-07T04:35:07.448Z,88.70
2018-10-07T04:37:35.299Z,88.70
2018-10-07T04:40:04.124Z,88.80
2018-10-07T04:42:31.955Z,89.00
2018-10-07T04:44:59.830Z,88.80
2018-10-07T04:47:27.684Z,88.70
2018-10-07T04:49:55.612Z,88.00
2018-10-07T04:52:23.436Z,87.90
2018-10-07T04:54:51.289Z,88.00
2018-10-07T04:57:19.111Z,87.90
2018-10-07T04:59:46.930Z,89.20
2018-10-07T05:02:14.740Z,89.40
2018-10-07T05:04:42.590Z,89.40
2018-10-07T05:07:10.626Z,88.40
2018-10-07T05:09:38.481Z,88.40
2018-10-07T05:12:08.285Z,88.70
2018-10-07T05:14:36.165Z,88.90
2018-10-07T05:17:04.197Z,88.70
2018-10-07T05:19:32.074Z,88.70
2018-10-07T05:22:00.228Z,89.00
2018-10-07T05:24:28.152Z,89.00
2018-10-07T05:26:56.310Z,88.90
2018-10-07T05:29:24.199Z,89.20
2018-10-07T05:31:52.047Z,89.10
2018-10-07T05:34:19.927Z,89.10
2018-10-07T05:36:47.786Z,89.60
2018-10-07T05:39:15.651Z,89.50
2018-10-07T05:41:43.513Z,89.70
2018-10-07T05:44:11.413Z,89.50
2018-10-07T05:46:39.221Z,89.90
2018-10-07T05:49:07.096Z,90.20
2018-10-07T05:51:34.962Z,90.10
2018-10-07T05:54:02.831Z,90.20
2018-10-07T05:56:30.696Z,90.10
2018-10-07T05:58:58.718Z,90.20
2018-10-07T06:01:33.843Z,90.10
2018-10-07T06:04:28.777Z,90.20
2018-10-07T06:06:59.491Z,90.30
2018-10-07T06:09:29.029Z,90.40
2018-10-07T06:11:57.271Z,90.50
2018-10-07T06:14:36.930Z,90.60
2018-10-07T06:17:04.794Z,90.60
2018-10-07T06:19:32.943Z,90.90
2018-10-07T06:22:02.687Z,90.90
2018-10-07T06:24:30.621Z,91.00
2018-10-07T06:26:58.773Z,91.10
2018-10-07T06:29:26.973Z,91.10
2018-10-07T06:31:55.153Z,91.10
2018-10-07T06:34:23.807Z,91.00
2018-10-07T06:36:52.716Z,91.20
2018-10-07T06:39:20.829Z,91.10
2018-10-07T06:41:49.377Z,91.10
2018-10-07T06:44:17.548Z,91.10
2018-10-07T06:46:45.739Z,91.10
2018-10-07T06:49:13.589Z,90.90
2018-10-07T06:51:41.465Z,90.90
2018-10-07T06:54:09.734Z,90.90
2018-10-07T06:56:37.598Z,91.00
2018-10-07T06:59:05.801Z,91.20
2018-10-07T07:01:33.646Z,91.30
2018-10-07T07:04:01.522Z,91.10
2018-10-07T07:06:29.402Z,91.00
2018-10-07T07:08:57.260Z,91.00
2018-10-07T07:11:25.099Z,91.10
2018-10-07T07:13:53.304Z,91.00
2018-10-07T07:16:21.184Z,91.00
2018-10-07T07:18:49.347Z,91.00
2018-10-07T07:21:17.250Z,91.10
2018-10-07T07:23:45.142Z,91.20
2018-10-07T07:26:13.038Z,90.90
2018-10-07T07:28:40.926Z,91.00
2018-10-07T07:31:09.101Z,91.00
2018-10-07T07:33:37.023Z,91.00
2018-10-07T07:36:04.977Z,90.90
2018-10-07T07:38:32.808Z,90.90
2018-10-07T07:41:00.669Z,91.00
2018-10-07T07:43:28.593Z,91.00
2018-10-07T07:45:56.452Z,91.00
2018-10-07T07:48:24.476Z,90.80
2018-10-07T07:50:52.339Z,91.00
2018-10-07T07:53:20.187Z,91.00
2018-10-07T07:55:48.032Z,91.20
2018-10-07T07:58:16.065Z,91.10
2018-10-07T08:00:44.801Z,91.20
2018-10-07T08:03:12.624Z,91.00
2018-10-07T08:05:40.452Z,91.00
2018-10-07T08:08:08.331Z,90.90
2018-10-07T08:10:36.134Z,91.10
2018-10-07T08:13:03.978Z,90.80
2018-10-07T08:15:31.835Z,90.70
2018-10-07T08:17:59.795Z,90.40
2018-10-07T08:20:27.743Z,90.30
2018-10-07T08:22:55.575Z,90.20
2018-10-07T08:25:23.412Z,90.20
2018-10-07T08:27:51.320Z,90.20
2018-10-07T08:30:19.176Z,90.10
2018-10-07T08:32:53.133Z,89.90
2018-10-07T08:35:21.094Z,90.20
2018-10-07T08:37:52.020Z,90.10
2018-10-07T08:40:19.892Z,90.40
2018-10-07T08:42:47.778Z,90.40
2018-10-07T08:45:15.622Z,90.30
2018-10-07T08:47:43.504Z,88.90
2018-10-07T08:50:11.365Z,88.50
2018-10-07T08:52:39.223Z,88.20
2018-10-07T08:55:07.069Z,87.90
2018-10-07T08:57:35.556Z,87.60
2018-10-07T09:00:03.953Z,87.00
2018-10-07T09:02:31.845Z,87.70
2018-10-07T09:04:59.705Z,86.90
2018-10-07T09:07:27.598Z,86.50
2018-10-07T09:09:55.435Z,87.10
2018-10-07T09:12:23.271Z,87.10
2018-10-07T09:14:51.118Z,86.70
2018-10-07T09:17:18.973Z,86.80
2018-10-07T09:19:46.811Z,86.60
2018-10-07T09:22:14.624Z,87.10
2018-10-07T09:24:42.475Z,86.10
2018-10-07T09:27:10.417Z,86.30
2018-10-07T09:29:38.889Z,85.70
2018-10-07T09:32:06.784Z,85.80
2018-10-07T09:34:34.659Z,85.70
2018-10-07T09:37:02.593Z,85.70
2018-10-07T09:39:30.521Z,85.20
2018-10-07T09:41:58.832Z,85.10
2018-10-07T09:44:26.755Z,85.80
2018-10-07T09:46:55.041Z,85.00
2018-10-07T09:49:22.956Z,85.20
2018-10-07T09:51:50.777Z,80.30
2018-10-07T09:54:18.635Z,80.20
2018-10-07T09:56:47.343Z,80.00
2018-10-07T09:59:16.168Z,79.70
2018-10-07T10:01:44.441Z,79.40
2018-10-07T10:04:12.324Z,79.60
2018-10-07T10:06:40.708Z,79.30
2018-10-07T10:09:09.758Z,79.40
2018-10-07T10:11:37.636Z,80.00
2018-10-07T10:14:05.631Z,79.90
2018-10-07T10:17:37.022Z,78.20
2018-10-07T10:20:07.409Z,79.00
2018-10-07T10:22:58.023Z,78.60
2018-10-07T10:25:31.617Z,79.40
2018-10-07T10:28:13.085Z,79.10
2018-10-07T10:30:49.757Z,78.30
2018-10-07T10:33:27.867Z,78.50
2018-10-07T10:36:10.431Z,78.80
2018-10-07T10:38:43.380Z,78.60
2018-10-07T10:41:21.094Z,78.20
2018-10-07T10:43:56.375Z,77.00
2018-10-07T10:47:01.935Z,77.30
2018-10-07T10:49:38.903Z,76.10
2018-10-07T10:52:16.404Z,77.60
2018-10-07T10:56:55.671Z,78.40
2018-10-07T10:59:32.912Z,78.90
2018-10-07T11:04:14.041Z,78.00
2018-10-07T11:06:52.876Z,78.30
2018-10-07T11:11:51.583Z,78.00
2018-10-07T11:14:58.522Z,77.60
2018-10-07T11:18:01.956Z,78.10
2018-10-07T11:20:45.894Z,78.00
2018-10-07T11:23:24.923Z,78.20
2018-10-07T11:26:03.176Z,78.10
2018-10-07T11:28:51.692Z,77.10
2018-10-07T11:33:34.920Z,75.70
2018-10-07T11:37:17.844Z,77.80
2018-10-07T11:40:24.317Z,77.40
2018-10-07T11:43:16.715Z,77.00
2018-10-07T11:45:54.734Z,75.90
2018-10-07T11:49:41.141Z,76.60
2018-10-07T11:52:50.963Z,77.90
2018-10-07T11:55:18.867Z,77.00
2018-10-07T11:57:46.740Z,76.50
2018-10-07T12:00:14.689Z,77.30
2018-10-07T12:02:43.584Z,77.00
2018-10-07T12:05:11.365Z,77.40
2018-10-07T12:07:45.874Z,76.30
2018-10-07T12:10:13.832Z,76.60
2018-10-07T12:12:41.658Z,76.90
2018-10-07T12:15:09.544Z,78.10
2018-10-07T12:17:37.427Z,76.90
2018-10-07T12:20:05.567Z,76.50
2018-10-07T12:22:33.410Z,77.20
2018-10-07T12:25:01.257Z,76.80
2018-10-07T12:27:29.125Z,76.90
2018-10-07T12:29:56.980Z,76.80
2018-10-07T12:32:24.863Z,77.10
2018-10-07T12:34:52.976Z,76.70
2018-10-07T12:37:20.858Z,76.20
2018-10-07T12:39:49.009Z,76.40
2018-10-07T12:42:16.835Z,76.50
2018-10-07T12:44:44.948Z,76.70
2018-10-07T12:47:12.831Z,76.30
2018-10-07T12:49:40.653Z,75.90
2018-10-07T12:52:08.489Z,75.20
2018-10-07T12:54:36.552Z,75.60
2018-10-07T12:57:04.303Z,76.50
2018-10-07T12:59:32.131Z,76.40
2018-10-07T13:01:59.959Z,75.70
2018-10-07T13:04:27.786Z,75.80
2018-10-07T13:06:55.656Z,76.80
2018-10-07T13:09:23.613Z,76.20
2018-10-07T13:11:51.533Z,75.60
2018-10-07T13:14:19.455Z,75.40
2018-10-07T13:16:47.379Z,76.20
2018-10-07T13:19:15.396Z,76.20
2018-10-07T13:21:43.237Z,77.40
2018-10-07T13:24:12.158Z,76.60
2018-10-07T13:26:40.342Z,76.70
2018-10-07T13:29:08.225Z,76.40
2018-10-07T13:31:36.089Z,76.80
2018-10-07T13:34:03.958Z,76.30
2018-10-07T13:36:32.106Z,76.70
2018-10-07T13:38:59.956Z,76.20
2018-10-07T13:41:27.821Z,75.90
2018-10-07T13:43:55.677Z,76.20
2018-10-07T13:46:23.552Z,76.20
2018-10-07T13:48:51.394Z,76.10
2018-10-07T13:51:19.622Z,76.70
2018-10-07T13:53:47.487Z,77.30
2018-10-07T13:56:15.328Z,76.90
2018-10-07T13:58:43.169Z,76.60
2018-10-07T14:01:11.292Z,77.20
2018-10-07T14:03:39.166Z,77.30
2018-10-07T14:06:07.149Z,76.90
2018-10-07T14:08:34.996Z,77.70
2018-10-07T14:11:03.175Z,77.30
2018-10-07T14:13:31.015Z,78.00
2018-10-07T14:15:58.823Z,77.20
2018-10-07T14:18:26.643Z,77.30
2018-10-07T14:20:54.737Z,78.00
2018-10-07T14:23:22.556Z,78.30
2018-10-07T14:25:50.383Z,79.20
2018-10-07T14:28:18.239Z,78.90
2018-10-07T14:30:46.051Z,78.70
2018-10-07T14:33:13.869Z,78.40
2018-10-07T14:35:41.745Z,79.30
2018-10-07T14:38:09.628Z,78.70
2018-10-07T14:40:37.442Z,78.10
2018-10-07T14:43:06.048Z,78.40
2018-10-07T14:45:33.890Z,78.90
2018-10-07T14:48:02.902Z,78.90
2018-10-07T14:50:30.734Z,79.00
2018-10-07T14:52:58.590Z,78.90
2018-10-07T14:55:26.696Z,79.10
2018-10-07T14:57:54.540Z,79.10
2018-10-07T15:00:22.395Z,79.20
2018-10-07T15:02:50.223Z,79.10
2018-10-07T15:05:18.050Z,79.60
2018-10-07T15:07:45.869Z,79.70
2018-10-07T15:10:13.680Z,79.90
2018-10-07T15:12:41.525Z,80.00
2018-10-07T15:15:09.329Z,79.90
2018-10-07T15:17:37.154Z,80.20
2018-10-07T15:20:05.689Z,80.10
2018-10-07T15:22:33.515Z,80.10
2018-10-07T15:25:01.344Z,80.10
2018-10-07T15:27:29.225Z,80.10
2018-10-07T15:29:57.133Z,80.60
2018-10-07T15:32:25.230Z,80.60
2018-10-07T15:34:53.193Z,80.80
2018-10-07T15:37:21.481Z,81.00
2018-10-07T15:39:49.370Z,80.90
2018-10-07T15:42:17.504Z,81.20
2018-10-07T15:44:45.364Z,81.10
2018-10-07T15:47:13.540Z,81.00
2018-10-07T15:49:41.392Z,80.90
2018-10-07T15:52:10.175Z,80.80
2018-10-07T15:54:38.097Z,81.00
2018-10-07T15:57:06.080Z,81.10
2018-10-07T15:59:33.924Z,81.00
2018-10-07T16:02:01.926Z,81.00
2018-10-07T16:04:29.742Z,81.00
2018-10-07T16:06:57.989Z,80.90
2018-10-07T16:09:25.846Z,81.10
2018-10-07T16:11:53.714Z,81.00
2018-10-07T16:14:21.556Z,81.00
2018-10-07T16:16:49.687Z,81.20
2018-10-07T16:19:17.561Z,81.40
2018-10-07T16:21:45.427Z,81.50
2018-10-07T16:24:13.277Z,81.50
2018-10-07T16:26:41.217Z,81.80
2018-10-07T16:29:08.997Z,81.70
2018-10-07T16:31:36.876Z,81.60
2018-10-07T16:34:04.764Z,81.60
2018-10-07T16:36:33.598Z,81.70
2018-10-07T16:39:01.494Z,81.70
2018-10-07T16:41:29.332Z,81.70
2018-10-07T16:43:57.472Z,81.70
2018-10-07T16:46:25.293Z,81.90
2018-10-07T16:48:53.075Z,82.20
2018-10-07T16:51:20.943Z,82.60
2018-10-07T16:53:49.465Z,82.60
2018-10-07T16:56:17.313Z,83.10
2018-10-07T16:58:45.145Z,83.10
2018-10-07T17:01:13.266Z,83.40
2018-10-07T17:03:41.540Z,83.60
2018-10-07T17:06:10.122Z,83.70
2018-10-07T17:08:38.001Z,84.00
2018-10-07T17:11:06.827Z,83.80
2018-10-07T17:13:34.981Z,84.00
2018-10-07T17:16:02.806Z,84.50
2018-10-07T17:18:30.671Z,84.50
2018-10-07T17:20:58.565Z,84.40
2018-10-07T17:23:26.612Z,84.90
2018-10-07T17:25:55.353Z,84.80
2018-10-07T17:28:23.180Z,84.70
2018-10-07T17:30:51.038Z,84.70
2018-10-07T17:33:18.888Z,85.20
2018-10-07T17:35:47.418Z,84.90
2018-10-07T17:38:15.323Z,85.10
2018-10-07T17:40:43.164Z,85.20
2018-10-07T17:43:11.015Z,85.20
2018-10-07T17:45:38.883Z,85.40
2018-10-07T17:48:06.794Z,85.30
2018-10-07T17:50:34.594Z,85.60
2018-10-07T17:53:02.401Z,85.60
2018-10-07T17:55:30.209Z,86.00
2018-10-07T17:57:58.032Z,86.10
2018-10-07T18:00:25.945Z,86.10
2018-10-07T18:02:53.919Z,86.00
2018-10-07T18:05:22.041Z,85.90
2018-10-07T18:07:49.901Z,85.90
2018-10-07T18:10:17.756Z,85.90
2018-10-07T18:12:46.768Z,86.00
2018-10-07T18:15:14.898Z,85.90
2018-10-07T18:17:42.737Z,86.10
2018-10-07T18:20:10.577Z,86.40
2018-10-07T18:22:38.420Z,86.40
2018-10-07T18:25:06.320Z,86.10
2018-10-07T18:27:34.285Z,86.10
2018-10-07T18:30:02.186Z,86.30
2018-10-07T18:32:30.116Z,86.30
2018-10-07T18:34:58.240Z,86.40
2018-10-07T18:37:26.081Z,86.10
2018-10-07T18:39:53.931Z,86.50
2018-10-07T18:42:21.782Z,86.60
2018-10-07T18:44:49.576Z,86.60
2018-10-07T18:47:17.384Z,86.90
2018-10-07T18:49:45.228Z,87.30
2018-10-07T18:52:13.108Z,86.90
2018-10-07T18:54:41.049Z,86.80
2018-10-07T18:57:09.233Z,87.30
2018-10-07T18:59:37.076Z,87.20
2018-10-07T19:02:05.002Z,87.10
2018-10-07T19:04:33.911Z,87.40
2018-10-07T19:07:01.764Z,87.40
2018-10-07T19:09:30.196Z,87.90
2018-10-07T19:11:58.072Z,88.10
2018-10-07T19:14:26.445Z,87.80
2018-10-07T19:16:55.153Z,88.00
2018-10-07T19:19:23.867Z,88.10
2018-10-07T19:21:51.752Z,88.10
2018-10-07T19:24:19.576Z,88.30
2018-10-07T19:26:48.270Z,88.70
2018-10-07T19:29:16.083Z,88.70
2018-10-07T19:31:43.914Z,88.50
2018-10-07T19:34:12.058Z,88.40
2018-10-07T19:36:40.658Z,89.00
2018-10-07T19:39:09.525Z,89.10
2018-10-07T19:41:38.219Z,89.10
2018-10-07T19:44:06.688Z,88.80
2018-10-07T19:46:34.980Z,88.60
2018-10-07T19:49:02.811Z,88.70
2018-10-07T19:51:30.673Z,88.70
2018-10-07T19:53:58.534Z,88.80
2018-10-07T19:56:26.356Z,88.90
2018-10-07T19:58:54.171Z,88.80
2018-10-07T20:01:22.623Z,88.80
2018-10-07T20:03:51.381Z,88.50
2018-10-07T20:06:19.263Z,88.40
2018-10-07T20:08:47.132Z,88.30
2018-10-07T20:11:14.995Z,88.70
2018-10-07T20:13:42.854Z,89.60
2018-10-07T20:16:10.908Z,89.60
2018-10-07T20:18:38.988Z,89.80
2018-10-07T20:21:06.824Z,89.90
2018-10-07T20:23:34.783Z,90.20
2018-10-07T20:26:03.327Z,90.30
2018-10-07T20:28:31.156Z,90.30
2018-10-07T20:30:58.985Z,90.40
2018-10-07T20:33:27.464Z,90.20
2018-10-07T20:35:55.604Z,90.20
2018-10-07T20:38:23.471Z,90.00
2018-10-07T20:40:51.594Z,89.90
2018-10-07T20:43:19.516Z,90.10
2018-10-07T20:45:47.682Z,90.10
2018-10-07T20:48:15.629Z,90.20
2018-10-07T20:50:43.648Z,90.10
2018-10-07T20:53:11.496Z,90.40
2018-10-07T20:55:39.351Z,90.10
2018-10-07T20:58:07.952Z,90.20
2018-10-07T21:00:36.121Z,90.00
2018-10-07T21:03:04.013Z,89.80
2018-10-07T21:05:31.877Z,90.10
2018-10-07T21:07:59.734Z,90.30
2018-10-07T21:10:27.607Z,90.30
2018-10-07T21:12:55.754Z,90.40
2018-10-07T21:15:23.600Z,90.50
2018-10-07T21:17:51.439Z,90.20
2018-10-07T21:20:19.315Z,90.30
2018-10-07T21:22:47.228Z,90.50
2018-10-07T21:25:15.088Z,90.30
2018-10-07T21:27:42.971Z,90.30
2018-10-07T21:30:10.847Z,90.40
2018-10-07T21:32:38.697Z,90.40
2018-10-07T21:35:06.583Z,90.50
2018-10-07T21:37:34.514Z,90.50
2018-10-07T21:40:02.317Z,90.40
2018-10-07T21:42:30.131Z,90.50
2018-10-07T21:44:58.337Z,90.40
2018-10-07T21:47:26.233Z,90.40
2018-10-07T21:49:54.092Z,90.40
2018-10-07T21:52:21.949Z,90.30
2018-10-07T21:54:49.805Z,90.40
2018-10-07T21:57:17.623Z,90.40
2018-10-07T21:59:45.457Z,90.40
2018-10-07T22:02:13.308Z,90.50
2018-10-07T22:04:41.189Z,90.40
2018-10-07T22:07:10.061Z,90.50
2018-10-07T22:09:37.977Z,90.40
2018-10-07T22:12:06.143Z,90.80
2018-10-07T22:14:33.962Z,90.50
2018-10-07T22:17:02.034Z,90.50
2018-10-07T22:19:29.879Z,90.50
2018-10-07T22:21:57.748Z,90.60
2018-10-07T22:24:25.867Z,90.60
2018-10-07T22:26:53.726Z,90.80
2018-10-07T22:29:21.551Z,90.90
2018-10-07T22:31:49.418Z,91.00
2018-10-07T22:34:17.230Z,91.00
2018-10-07T22:36:45.055Z,91.00
2018-10-07T22:39:12.886Z,91.00
2018-10-07T22:41:40.756Z,90.90
2018-10-07T22:44:08.632Z,90.90
2018-10-07T22:46:36.522Z,90.70
2018-10-07T22:49:04.401Z,90.70
2018-10-07T22:51:32.236Z,90.60
2018-10-07T22:54:00.096Z,90.50
2018-10-07T22:56:27.978Z,90.50
2018-10-07T22:58:55.848Z,90.50
2018-10-07T23:01:23.715Z,90.40
2018-10-07T23:03:51.556Z,90.30
2018-10-07T23:06:19.412Z,90.40
2018-10-07T23:08:47.235Z,90.40
2018-10-07T23:11:15.055Z,90.30
2018-10-07T23:13:43.280Z,90.30
2018-10-07T23:16:11.134Z,90.30
2018-10-07T23:18:38.993Z,90.40
2018-10-07T23:21:06.877Z,90.30
2018-10-07T23:23:34.703Z,90.30
2018-10-07T23:26:02.572Z,90.20
2018-10-07T23:28:30.420Z,90.30
2018-10-07T23:30:58.264Z,90.40
2018-10-07T23:33:26.127Z,90.50
2018-10-07T23:35:54.619Z,90.60
2018-10-07T23:38:22.477Z,90.60
2018-10-07T23:40:51.914Z,90.60
2018-10-07T23:43:19.736Z,90.70
2018-10-07T23:45:47.615Z,90.70
2018-10-07T23:48:15.460Z,90.70
2018-10-07T23:50:43.640Z,90.90
2018-10-07T23:53:11.555Z,91.00
2018-10-07T23:55:39.399Z,91.00
2018-10-07T23:58:07.254Z,91.00
